createdAt,value
2018-03-20T00:00:42.913Z,8.07
2018-03-20T00:03:10.569Z,8.23
2018-03-20T00:05:38.135Z,9.30
2018-03-20T00:08:05.834Z,8.50
2018-03-20T00:10:33.413Z,7.07
2018-03-20T00:13:01.027Z,7.80
2018-03-20T00:15:28.661Z,8.70
2018-03-20T00:17:56.324Z,9.43
2018-03-20T00:20:23.909Z,7.67
2018-03-20T00:22:51.514Z,9.40
2018-03-20T00:25:19.255Z,8.50
2018-03-20T00:27:46.927Z,8.60
2018-03-20T00:30:14.560Z,9.60
2018-03-20T00:32:42.383Z,10.20
2018-03-20T00:35:10.061Z,9.90
2018-03-20T00:37:37.737Z,9.77
2018-03-20T00:40:05.299Z,9.63
2018-03-20T00:42:33.088Z,10.00
2018-03-20T00:45:00.745Z,10.27
2018-03-20T00:47:28.424Z,9.40
2018-03-20T00:49:56.214Z,11.50
2018-03-20T00:52:23.798Z,9.23
2018-03-20T00:54:51.564Z,10.33
2018-03-20T00:57:19.344Z,10.97
2018-03-20T00:59:47.010Z,10.10
2018-03-20T01:02:14.800Z,10.23
2018-03-20T01:04:42.461Z,8.87
2018-03-20T01:07:10.250Z,11.80
2018-03-20T01:09:37.920Z,10.20
2018-03-20T01:12:05.707Z,9.63
2018-03-20T01:14:33.433Z,10.10
2018-03-20T01:17:01.012Z,12.10
2018-03-20T01:19:28.713Z,9.50
2018-03-20T01:21:56.298Z,11.77
2018-03-20T01:24:23.979Z,10.83
2018-03-20T01:26:51.651Z,11.47
2018-03-20T01:29:19.250Z,12.37
2018-03-20T01:31:47.109Z,11.30
2018-03-20T01:34:14.886Z,11.00
2018-03-20T01:36:42.665Z,10.93
2018-03-20T01:39:10.549Z,12.20
2018-03-20T01:41:38.220Z,11.23
2018-03-20T01:44:05.893Z,11.40
2018-03-20T01:46:33.567Z,10.17
2018-03-20T01:49:01.453Z,12.07
2018-03-20T01:51:29.119Z,11.87
2018-03-20T01:53:56.846Z,10.40
2018-03-20T01:56:24.686Z,13.20
2018-03-20T01:58:52.334Z,11.80
2018-03-20T02:01:19.909Z,11.80
2018-03-20T02:03:47.710Z,12.67
2018-03-20T02:06:15.366Z,12.13
2018-03-20T02:08:43.165Z,11.67
2018-03-20T02:11:10.748Z,10.70
2018-03-20T02:13:38.366Z,12.40
2018-03-20T02:16:06.078Z,10.77
2018-03-20T02:18:33.866Z,12.37
2018-03-20T02:21:01.630Z,12.10
2018-03-20T02:23:29.313Z,12.20
2018-03-20T02:25:57.060Z,10.93
2018-03-20T02:28:24.873Z,10.97
2018-03-20T02:30:52.467Z,13.10
2018-03-20T02:33:20.116Z,12.00
2018-03-20T02:35:48.007Z,12.37
2018-03-20T02:38:15.778Z,12.77
2018-03-20T02:40:43.401Z,12.60
2018-03-20T02:43:11.174Z,11.60
2018-03-20T02:45:39.013Z,12.90
2018-03-20T02:48:06.599Z,11.67
2018-03-20T02:50:34.242Z,13.23
2018-03-20T02:53:01.928Z,12.57
2018-03-20T02:55:29.604Z,13.40
2018-03-20T02:57:57.488Z,13.90
2018-03-20T03:00:25.155Z,12.20
2018-03-20T03:02:52.943Z,12.10
2018-03-20T03:05:20.582Z,13.77
2018-03-20T03:07:48.174Z,12.83
2018-03-20T03:10:15.930Z,12.90
2018-03-20T03:12:43.752Z,13.83
2018-03-20T03:15:11.523Z,11.00
2018-03-20T03:17:39.181Z,11.17
2018-03-20T03:20:06.982Z,12.57
2018-03-20T03:22:34.646Z,11.07
2018-03-20T03:25:02.375Z,11.27
2018-03-20T03:27:30.211Z,11.00
2018-03-20T03:29:57.875Z,11.00
2018-03-20T03:32:25.559Z,10.00
2018-03-20T03:34:53.238Z,8.87
2018-03-20T03:37:20.914Z,8.57
2018-03-20T03:39:48.692Z,10.87
2018-03-20T03:42:16.364Z,6.67
2018-03-20T03:44:44.519Z,8.80
2018-03-20T03:47:12.095Z,7.67
2018-03-20T03:49:39.673Z,8.50
2018-03-20T03:52:07.378Z,9.77
2018-03-20T03:54:35.122Z,8.03
2018-03-20T03:57:02.704Z,8.90
2018-03-20T03:59:30.350Z,8.10
2018-03-20T04:01:58.075Z,9.50
2018-03-20T04:04:25.650Z,8.53
2018-03-20T04:06:53.476Z,6.00
2018-03-20T04:09:21.207Z,4.57
2018-03-20T04:11:48.934Z,7.30
2018-03-20T04:14:16.594Z,8.07
2018-03-20T04:16:44.329Z,8.63
2018-03-20T04:19:12.112Z,7.33
2018-03-20T04:21:39.892Z,7.17
2018-03-20T04:24:07.656Z,6.83
2018-03-20T04:26:35.456Z,9.27
2018-03-20T04:29:03.336Z,7.60
2018-03-20T04:31:31.064Z,6.20
2018-03-20T04:33:58.878Z,4.43
2018-03-20T04:36:26.661Z,4.50
2018-03-20T04:38:54.318Z,2.70
2018-03-20T04:41:21.899Z,4.17
2018-03-20T04:43:49.621Z,5.07
2018-03-20T04:46:17.466Z,2.30
2018-03-20T04:48:45.054Z,4.20
2018-03-20T04:51:12.808Z,5.00
2018-03-20T04:53:40.536Z,3.90
2018-03-20T04:56:08.271Z,3.20
2018-03-20T04:58:35.904Z,4.43
2018-03-20T05:01:03.545Z,2.83
2018-03-20T05:03:31.185Z,3.20
2018-03-20T05:05:58.970Z,3.23
2018-03-20T05:08:26.852Z,3.40
2018-03-20T05:10:54.630Z,3.70
2018-03-20T05:13:22.196Z,2.53
2018-03-20T05:15:49.975Z,4.23
2018-03-20T05:18:17.578Z,3.23
2018-03-20T05:23:50.693Z,3.00
2018-03-20T05:26:18.362Z,2.00
2018-03-20T05:28:45.980Z,4.23
2018-03-20T05:31:13.719Z,3.77
2018-03-20T05:33:41.599Z,3.60
2018-03-20T05:36:09.422Z,3.43
2018-03-20T05:38:37.258Z,3.43
2018-03-20T05:41:04.930Z,2.70
2018-03-20T05:43:32.623Z,2.70
2018-03-20T05:46:00.248Z,2.00
2018-03-20T05:51:46.532Z,4.20
2018-03-20T05:54:14.212Z,4.47
2018-03-20T05:56:41.871Z,2.97
2018-03-20T05:59:09.655Z,3.53
2018-03-20T06:01:37.437Z,4.70
2018-03-20T06:04:05.031Z,3.33
2018-03-20T06:06:32.776Z,4.80
2018-03-20T06:09:00.349Z,5.57
2018-03-20T06:11:28.138Z,5.50
2018-03-20T06:13:55.781Z,3.90
2018-03-20T06:16:23.356Z,3.90
2018-03-20T06:18:51.159Z,5.40
2018-03-20T06:21:18.941Z,5.20
2018-03-20T06:23:46.724Z,5.67
2018-03-20T06:26:14.491Z,7.20
2018-03-20T06:28:42.170Z,5.33
2018-03-20T06:31:09.750Z,4.47
2018-03-20T06:33:37.627Z,6.93
2018-03-20T06:36:05.220Z,7.03
2018-03-20T06:38:32.864Z,5.43
2018-03-20T06:41:00.547Z,7.90
2018-03-20T06:43:28.210Z,5.27
2018-03-20T06:45:55.886Z,6.27
2018-03-20T06:48:23.573Z,11.63
2018-03-20T06:50:51.238Z,8.30
2018-03-20T06:53:18.988Z,11.53
2018-03-20T06:55:46.811Z,9.27
2018-03-20T06:58:14.388Z,8.50
2018-03-20T07:00:42.049Z,7.87
2018-03-20T07:03:09.731Z,8.67
2018-03-20T07:05:37.496Z,7.27
2018-03-20T07:08:05.172Z,10.60
2018-03-20T07:10:32.743Z,9.53
2018-03-20T07:13:00.427Z,8.73
2018-03-20T07:15:28.232Z,10.50
2018-03-20T07:17:55.870Z,8.23
2018-03-20T07:20:23.664Z,9.17
2018-03-20T07:22:51.553Z,10.60
2018-03-20T07:25:19.278Z,10.07
2018-03-20T07:27:46.999Z,7.70
2018-03-20T07:30:14.881Z,13.47
2018-03-20T07:32:42.658Z,11.70
2018-03-20T07:35:10.324Z,10.70
2018-03-20T07:37:38.214Z,12.13
2018-03-20T07:40:05.869Z,9.83
2018-03-20T07:42:33.661Z,9.73
2018-03-20T07:45:01.308Z,10.00
2018-03-20T07:47:28.998Z,6.80
2018-03-20T07:49:56.688Z,6.40
2018-03-20T07:52:24.573Z,6.80
2018-03-20T07:54:52.350Z,6.90
2018-03-20T07:57:20.130Z,7.77
2018-03-20T07:59:47.951Z,8.80
2018-03-20T08:02:15.828Z,7.90
2018-03-20T08:04:43.564Z,7.43
2018-03-20T08:07:11.336Z,5.60
2018-03-20T08:09:39.118Z,5.50
2018-03-20T08:12:06.896Z,6.90
2018-03-20T08:14:34.525Z,6.90
2018-03-20T08:17:02.352Z,3.43
2018-03-20T08:19:30.038Z,2.80
2018-03-20T08:21:57.877Z,5.80
2018-03-20T08:24:25.614Z,3.80
2018-03-20T08:26:53.344Z,2.30
2018-03-20T08:29:21.073Z,3.43
2018-03-20T08:31:48.767Z,2.53
2018-03-20T08:34:16.458Z,2.10
2018-03-20T08:36:44.277Z,2.23
2018-03-20T08:39:11.933Z,1.50
2018-03-20T08:41:39.824Z,2.20
2018-03-20T08:44:07.596Z,2.07
2018-03-20T08:46:35.377Z,1.37
2018-03-20T08:49:03.040Z,2.50
2018-03-20T08:51:30.820Z,2.30
2018-03-20T08:53:58.592Z,3.00
2018-03-20T08:56:26.330Z,2.13
2018-03-20T08:58:54.020Z,3.33
2018-03-20T09:01:21.695Z,2.50
2018-03-20T09:03:49.513Z,3.73
2018-03-20T09:06:17.252Z,2.00
2018-03-20T09:08:44.864Z,1.93
2018-03-20T09:11:12.461Z,2.13
2018-03-20T09:13:40.107Z,4.00
2018-03-20T09:16:07.834Z,3.30
2018-03-20T09:18:35.408Z,2.43
2018-03-20T09:21:03.029Z,3.17
2018-03-20T09:23:30.694Z,3.40
2018-03-20T09:25:58.351Z,3.23
2018-03-20T09:28:26.060Z,2.33
2018-03-20T09:30:53.780Z,3.57
2018-03-20T09:33:21.397Z,4.43
2018-03-20T09:35:48.967Z,3.90
2018-03-20T09:38:16.565Z,3.00
2018-03-20T09:40:44.142Z,3.33
2018-03-20T09:43:11.899Z,3.33
2018-03-20T09:45:39.471Z,1.93
2018-03-20T09:48:07.123Z,3.30
2018-03-20T09:50:34.936Z,1.70
2018-03-20T09:53:02.613Z,1.60
2018-03-20T09:55:30.387Z,2.70
2018-03-20T09:57:58.066Z,2.40
2018-03-20T10:00:25.843Z,1.67
2018-03-20T10:02:53.508Z,1.30
2018-03-20T10:05:21.085Z,1.73
2018-03-20T10:07:48.725Z,2.20
2018-03-20T10:10:16.288Z,1.60
2018-03-20T10:12:44.016Z,0.97
2018-03-20T10:15:11.692Z,1.00
2018-03-20T10:17:39.355Z,1.40
2018-03-20T10:20:07.258Z,1.63
2018-03-20T10:22:34.913Z,1.50
2018-03-20T10:25:02.606Z,1.17
2018-03-20T10:27:30.369Z,1.23
2018-03-20T10:29:58.100Z,1.47
2018-03-20T10:32:25.820Z,0.90
2018-03-20T10:34:53.385Z,1.53
2018-03-20T10:37:21.060Z,1.00
2018-03-20T10:39:48.733Z,1.03
2018-03-20T10:42:16.483Z,0.77
2018-03-20T10:44:44.614Z,1.00
2018-03-20T10:47:12.291Z,0.77
2018-03-20T10:49:40.072Z,1.60
2018-03-20T10:52:07.632Z,1.00
2018-03-20T10:54:35.200Z,0.73
2018-03-20T10:57:03.090Z,1.23
2018-03-20T10:59:30.677Z,1.00
2018-03-20T11:02:03.970Z,0.93
2018-03-20T11:04:31.753Z,0.90
2018-03-20T11:06:59.321Z,0.90
2018-03-20T11:09:26.995Z,0.80
2018-03-20T11:11:54.652Z,0.93
2018-03-20T11:14:22.282Z,0.97
2018-03-20T11:16:49.986Z,1.20
2018-03-20T11:19:17.567Z,1.20
2018-03-20T11:21:45.376Z,0.77
2018-03-20T11:24:13.108Z,1.10
2018-03-20T11:26:40.753Z,0.87
2018-03-20T11:29:08.507Z,1.27
2018-03-20T11:31:36.183Z,1.20
2018-03-20T11:34:03.856Z,1.00
2018-03-20T11:36:31.536Z,1.10
2018-03-20T11:38:59.160Z,1.00
2018-03-20T11:41:26.772Z,1.13
2018-03-20T11:43:54.371Z,1.00
2018-03-20T11:46:22.183Z,1.43
2018-03-20T11:48:49.875Z,0.90
2018-03-20T11:51:17.691Z,1.20
2018-03-20T11:53:45.573Z,1.50
2018-03-20T11:56:13.182Z,1.67
2018-03-20T11:58:40.817Z,0.60
2018-03-20T12:01:08.693Z,0.97
2018-03-20T12:03:36.475Z,1.37
2018-03-20T12:06:04.249Z,1.00
2018-03-20T12:08:43.882Z,1.17
2018-03-20T12:11:11.575Z,2.07
2018-03-20T12:13:39.253Z,0.80
2018-03-20T12:16:07.008Z,2.07
2018-03-20T12:18:34.814Z,1.20
2018-03-20T12:21:02.413Z,1.10
2018-03-20T12:23:30.164Z,1.10
2018-03-20T12:25:57.898Z,0.90
2018-03-20T12:28:25.608Z,0.90
2018-03-20T12:30:53.350Z,1.10
2018-03-20T12:33:21.174Z,0.83
2018-03-20T12:35:48.844Z,0.80
2018-03-20T12:38:16.631Z,0.90
2018-03-20T12:40:44.308Z,1.10
2018-03-20T12:43:12.058Z,0.80
2018-03-20T12:45:39.859Z,0.83
2018-03-20T12:48:07.696Z,0.90
2018-03-20T12:50:35.518Z,1.27
2018-03-20T12:53:03.304Z,1.03
2018-03-20T12:55:31.069Z,1.23
2018-03-20T12:57:58.847Z,0.90
2018-03-20T13:00:26.627Z,1.13
2018-03-20T13:02:54.468Z,1.30
2018-03-20T13:05:22.182Z,0.87
2018-03-20T13:07:49.853Z,1.50
2018-03-20T13:10:17.534Z,1.43
2018-03-20T13:12:45.212Z,1.50
2018-03-20T13:15:12.800Z,0.70
2018-03-20T13:17:40.464Z,1.50
2018-03-20T13:20:08.101Z,0.93
2018-03-20T13:22:35.699Z,2.50
2018-03-20T13:25:03.471Z,2.13
2018-03-20T13:27:31.142Z,1.60
2018-03-20T13:29:58.823Z,2.57
2018-03-20T13:32:26.411Z,1.63
2018-03-20T13:34:54.072Z,1.43
2018-03-20T13:37:21.862Z,2.17
2018-03-20T13:39:49.483Z,1.70
2018-03-20T13:42:17.219Z,1.63
2018-03-20T13:44:44.873Z,3.27
2018-03-20T13:47:12.672Z,1.93
2018-03-20T13:49:40.344Z,0.90
2018-03-20T13:52:08.006Z,1.13
2018-03-20T13:54:35.621Z,0.80
2018-03-20T13:57:03.278Z,1.70
2018-03-20T13:59:30.992Z,1.77
2018-03-20T14:01:58.629Z,1.33
2018-03-20T14:04:26.292Z,0.90
2018-03-20T14:06:54.069Z,2.00
2018-03-20T14:09:21.706Z,1.53
2018-03-20T14:11:49.304Z,1.67
2018-03-20T14:14:16.985Z,2.77
2018-03-20T14:16:44.610Z,1.10
2018-03-20T14:19:12.239Z,2.00
2018-03-20T14:21:39.821Z,4.67
2018-03-20T14:24:07.465Z,1.83
2018-03-20T14:26:35.156Z,2.10
2018-03-20T14:29:02.945Z,0.83
2018-03-20T14:31:30.721Z,1.20
2018-03-20T14:33:58.388Z,1.20
2018-03-20T14:36:26.217Z,1.90
2018-03-20T14:38:53.853Z,1.30
2018-03-20T14:41:21.571Z,2.30
2018-03-20T14:43:49.209Z,0.90
2018-03-20T14:46:16.864Z,0.70
2018-03-20T14:48:44.659Z,1.20
2018-03-20T14:51:12.319Z,1.00
2018-03-20T14:53:41.944Z,1.50
2018-03-20T14:56:09.731Z,0.97
2018-03-20T14:58:37.405Z,1.30
2018-03-20T15:01:05.177Z,0.70
2018-03-20T15:03:32.962Z,1.93
2018-03-20T15:06:00.740Z,1.30
2018-03-20T15:08:28.325Z,2.37
2018-03-20T15:10:56.069Z,1.50
2018-03-20T15:13:23.867Z,1.50
2018-03-20T15:15:51.653Z,1.27
2018-03-20T15:18:19.344Z,2.33
2018-03-20T15:20:46.993Z,1.83
2018-03-20T15:23:14.624Z,1.60
2018-03-20T15:25:42.328Z,1.10
2018-03-20T15:28:10.023Z,1.40
2018-03-20T15:30:37.800Z,1.00
2018-03-20T15:33:05.574Z,1.50
2018-03-20T15:35:33.157Z,1.33
2018-03-20T15:38:00.926Z,1.50
2018-03-20T15:40:28.545Z,1.53
2018-03-20T15:42:56.118Z,1.17
2018-03-20T15:45:23.747Z,0.90
2018-03-20T15:47:51.416Z,1.23
2018-03-20T15:50:19.206Z,1.40
2018-03-20T15:52:46.980Z,0.97
2018-03-20T15:55:14.665Z,1.27
2018-03-20T15:57:42.421Z,1.53
2018-03-20T16:00:10.208Z,1.33
2018-03-20T16:02:37.884Z,1.57
2018-03-20T16:05:05.551Z,1.13
2018-03-20T16:07:33.236Z,1.10
2018-03-20T16:10:00.969Z,1.20
2018-03-20T16:12:28.654Z,1.50
2018-03-20T16:14:56.573Z,0.93
2018-03-20T16:17:24.156Z,0.90
2018-03-20T16:19:51.729Z,1.67
2018-03-20T16:22:19.452Z,1.80
2018-03-20T16:24:47.174Z,1.53
2018-03-20T16:27:14.843Z,1.73
2018-03-20T16:29:42.641Z,1.10
2018-03-20T16:32:10.514Z,1.80
2018-03-20T16:34:38.356Z,1.33
2018-03-20T16:37:06.163Z,1.63
2018-03-20T16:39:33.821Z,1.00
2018-03-20T16:42:01.384Z,1.57
2018-03-20T16:44:29.190Z,1.50
2018-03-20T16:46:56.862Z,1.30
2018-03-20T16:49:24.521Z,1.30
2018-03-20T16:51:52.318Z,1.10
2018-03-20T16:54:20.036Z,1.17
2018-03-20T16:56:47.637Z,1.30
2018-03-20T16:59:15.290Z,0.93
2018-03-20T17:01:43.012Z,1.23
2018-03-20T17:04:10.747Z,1.07
2018-03-20T17:06:38.325Z,1.23
2018-03-20T17:09:06.032Z,0.83
2018-03-20T17:11:33.724Z,0.90
2018-03-20T17:14:01.499Z,0.90
2018-03-20T17:16:29.354Z,1.10
2018-03-20T17:18:56.923Z,1.70
2018-03-20T17:21:24.730Z,1.20
2018-03-20T17:23:52.405Z,1.33
2018-03-20T17:26:20.026Z,1.30
2018-03-20T17:28:47.754Z,0.80
2018-03-20T17:31:15.333Z,1.70
2018-03-20T17:33:42.947Z,1.20
2018-03-20T17:36:10.682Z,0.83
2018-03-20T17:38:38.262Z,0.90
2018-03-20T17:41:06.730Z,0.83
2018-03-20T17:43:34.410Z,0.70
2018-03-20T17:46:02.707Z,1.07
2018-03-20T17:48:30.390Z,0.93
2018-03-20T17:50:58.711Z,1.10
2018-03-20T17:53:29.644Z,0.83
2018-03-20T17:55:57.447Z,0.70
2018-03-20T17:58:25.039Z,1.00
2018-03-20T18:00:52.864Z,0.90
2018-03-20T18:03:20.538Z,1.33
2018-03-20T18:05:48.219Z,1.97
2018-03-20T18:08:15.884Z,1.10
2018-03-20T18:10:43.493Z,0.90
2018-03-20T18:13:11.086Z,1.40
2018-03-20T18:15:38.805Z,1.03
2018-03-20T18:18:06.597Z,0.90
2018-03-20T18:20:34.268Z,1.53
2018-03-20T18:23:01.877Z,1.00
2018-03-20T18:25:29.502Z,1.03
2018-03-20T18:27:57.076Z,1.40
2018-03-20T18:30:24.759Z,1.23
2018-03-20T18:32:52.546Z,1.20
2018-03-20T18:35:20.328Z,1.40
2018-03-20T18:37:47.888Z,1.47
2018-03-20T18:40:15.780Z,1.00
2018-03-20T18:42:43.557Z,1.23
2018-03-20T18:45:11.118Z,1.30
2018-03-20T18:47:38.802Z,1.60
2018-03-20T18:50:06.533Z,2.00
2018-03-20T18:52:34.202Z,1.30
2018-03-20T18:55:02.035Z,1.60
2018-03-20T18:57:29.815Z,1.83
2018-03-20T18:59:57.599Z,1.10
2018-03-20T19:02:25.266Z,1.37
2018-03-20T19:04:52.938Z,1.10
2018-03-20T19:07:20.618Z,1.63
2018-03-20T19:09:48.293Z,1.60
2018-03-20T19:12:16.070Z,2.67
2018-03-20T19:14:43.846Z,2.20
2018-03-20T19:17:11.468Z,1.83
2018-03-20T19:19:39.192Z,1.37
2018-03-20T19:22:06.983Z,2.13
2018-03-20T19:24:34.757Z,1.80
2018-03-20T19:27:02.599Z,2.53
2018-03-20T19:29:30.209Z,5.20
2018-03-20T19:31:57.919Z,6.00
2018-03-20T19:34:25.553Z,4.73
2018-03-20T19:36:53.338Z,3.80
2018-03-20T19:39:21.003Z,4.17
2018-03-20T19:41:48.638Z,2.10
2018-03-20T19:44:16.256Z,2.03
2018-03-20T19:46:43.935Z,1.70
2018-03-20T19:49:11.613Z,2.10
2018-03-20T19:51:39.390Z,2.30
2018-03-20T19:54:06.960Z,2.80
2018-03-20T19:56:34.845Z,2.47
2018-03-20T19:59:02.562Z,2.17
2018-03-20T20:01:30.399Z,1.77
2018-03-20T20:03:58.122Z,1.10
2018-03-20T20:06:25.808Z,3.27
2018-03-20T20:08:53.631Z,1.60
2018-03-20T20:11:21.373Z,2.20
2018-03-20T20:13:49.064Z,1.80
2018-03-20T20:16:16.706Z,1.67
2018-03-20T20:18:44.433Z,1.47
2018-03-20T20:21:12.011Z,1.93
2018-03-20T20:23:39.685Z,2.83
2018-03-20T20:26:07.253Z,2.03
2018-03-20T20:28:34.876Z,1.70
2018-03-20T20:31:02.488Z,1.47
2018-03-20T20:33:30.281Z,1.60
2018-03-20T20:35:57.952Z,1.37
2018-03-20T20:38:25.632Z,2.20
2018-03-20T20:40:53.425Z,1.73
2018-03-20T20:43:21.096Z,1.30
2018-03-20T20:45:48.675Z,1.73
2018-03-20T20:48:16.439Z,1.30
2018-03-20T20:50:44.318Z,2.00
2018-03-20T20:53:11.992Z,2.10
2018-03-20T20:55:39.552Z,1.43
2018-03-20T20:58:07.238Z,1.27
2018-03-20T21:00:34.805Z,1.37
2018-03-20T21:03:02.486Z,1.20
2018-03-20T21:05:30.123Z,2.33
2018-03-20T21:07:57.719Z,1.97
2018-03-20T21:10:25.518Z,1.70
2018-03-20T21:12:53.179Z,2.10
2018-03-20T21:15:20.865Z,1.83
2018-03-20T21:17:48.650Z,1.90
2018-03-20T21:20:16.321Z,2.00
2018-03-20T21:22:44.048Z,3.10
2018-03-20T21:25:11.625Z,2.37
2018-03-20T21:27:39.451Z,1.43
2018-03-20T21:30:07.117Z,1.90
2018-03-20T21:32:34.800Z,1.60
2018-03-20T21:35:02.434Z,1.80
2018-03-20T21:37:30.252Z,2.07
2018-03-20T21:39:58.034Z,2.27
2018-03-20T21:42:25.913Z,2.80
2018-03-20T21:44:53.586Z,1.80
2018-03-20T21:47:21.266Z,1.87
2018-03-20T21:49:48.939Z,2.77
2018-03-20T21:52:16.718Z,3.63
2018-03-20T21:54:44.279Z,4.53
2018-03-20T21:57:12.066Z,4.87
2018-03-20T21:59:39.676Z,2.47
2018-03-20T22:02:07.472Z,2.30
2018-03-20T22:04:35.295Z,2.40
2018-03-20T22:07:02.968Z,1.70
2018-03-20T22:09:30.645Z,2.23
2018-03-20T22:11:58.495Z,1.70
2018-03-20T22:14:26.104Z,2.30
2018-03-20T22:16:53.828Z,1.37
2018-03-20T22:19:21.658Z,2.17
2018-03-20T22:21:49.269Z,2.50
2018-03-20T22:24:17.110Z,3.37
2018-03-20T22:26:44.776Z,2.70
2018-03-20T22:29:12.632Z,2.93
2018-03-20T22:31:40.327Z,3.53
2018-03-20T22:34:08.104Z,2.87
2018-03-20T22:36:35.793Z,2.70
2018-03-20T22:39:03.483Z,3.03
2018-03-20T22:41:31.191Z,2.93
2018-03-20T22:43:58.920Z,4.17
2018-03-20T22:46:26.701Z,3.43
2018-03-20T22:48:54.378Z,3.17
2018-03-20T22:51:22.038Z,3.17
2018-03-20T22:53:52.597Z,2.37
2018-03-20T22:56:20.228Z,2.43
2018-03-20T22:58:47.905Z,1.80
2018-03-20T23:01:15.598Z,3.00
2018-03-20T23:03:43.401Z,2.17
2018-03-20T23:06:11.056Z,2.13
2018-03-20T23:08:38.752Z,2.10
2018-03-20T23:11:06.327Z,2.20
2018-03-20T23:13:33.929Z,2.27
2018-03-20T23:16:01.586Z,2.57
2018-03-20T23:18:29.191Z,2.07
2018-03-20T23:20:56.808Z,2.60
2018-03-20T23:23:24.495Z,2.00
2018-03-20T23:25:52.169Z,2.27
2018-03-20T23:28:19.946Z,2.17
2018-03-20T23:30:47.716Z,2.80
2018-03-20T23:33:15.398Z,2.93
2018-03-20T23:35:43.064Z,2.33
2018-03-20T23:38:10.935Z,3.00
2018-03-20T23:40:38.613Z,2.63
2018-03-20T23:43:06.203Z,3.10
2018-03-20T23:45:33.798Z,2.50
2018-03-20T23:48:01.369Z,1.83
2018-03-20T23:50:28.982Z,3.20
2018-03-20T23:52:56.563Z,2.50
2018-03-20T23:55:24.311Z,1.87
2018-03-20T23:57:51.888Z,2.23
